Time;durP1;ratioP1;P1;durP2;ratioP2;P2;SDS_P1;SDS_P2;PMS_P1;PMS_P2;Temp;Humidity;BMP_temperature;BMP_pressure;BME280_temperature;BME280_humidity;BME280_pressure;Samples;Min_cycle;Max_cycle;Signal;HPM_P1;HPM_P2
2022/10/28 00:04:39;;;;;;;20.62;11.15;;;;;;;13.58;86.28;100295.11;4212967;84;28460;-90
2022/10/28 00:10:40;;;;;;;25.80;12.55;;;;;;;13.45;84.21;100293.33;4203535;83;28446;-92
2022/10/28 00:16:42;;;;;;;19.10;11.20;;;;;;;13.63;85.99;100287.99;4207260;84;28528;-93
2022/10/28 00:22:43;;;;;;;20.32;12.20;;;;;;;13.55;86.66;100295.02;4188773;83;28476;-92
2022/10/28 00:28:57;;;;;;;18.87;11.28;;;;;;;13.59;84.58;100288.66;4202526;84;28478;-89
2022/10/28 00:34:58;;;;;;;21.97;11.80;;;;;;;13.37;86.10;100276.84;4178736;84;28481;-90
2022/10/28 00:40:59;;;;;;;20.32;11.45;;;;;;;13.07;86.67;100274.25;4261824;84;28508;-91
2022/10/28 00:47:01;;;;;;;19.67;11.18;;;;;;;13.06;87.65;100274.45;4212422;84;28462;-89
2022/10/28 00:53:10;;;;;;;21.15;12.13;;;;;;;13.24;86.95;100265.09;4242664;83;28503;-90
2022/10/28 00:59:20;;;;;;;24.43;12.03;;;;;;;13.41;85.58;100258.33;4243930;83;28462;-88
2022/10/28 01:05:31;;;;;;;21.62;11.35;;;;;;;13.16;87.27;100252.36;4303175;82;28500;-92
2022/10/28 01:11:41;;;;;;;21.20;11.22;;;;;;;13.34;84.88;100252.44;4252550;83;28476;-89
2022/10/28 01:17:59;;;;;;;21.50;11.28;;;;;;;12.65;88.96;100238.74;4277602;82;28453;-86
2022/10/28 01:24:23;;;;;;;20.68;10.78;;;;;;;12.85;87.35;100239.16;4267170;82;28610;-89
2022/10/28 01:30:29;;;;;;;21.55;14.65;;;;;;;12.90;85.19;100239.35;4287926;82;28488;-90
2022/10/28 01:36:48;;;;;;;19.23;12.10;;;;;;;12.99;87.09;100235.35;4267314;82;28464;-88
2022/10/28 01:43:04;;;;;;;19.87;12.58;;;;;;;12.34;87.55;100229.03;4277128;82;28461;-90
2022/10/28 01:49:20;;;;;;;18.87;11.80;;;;;;;12.74;86.80;100229.89;4303361;81;28492;-89
2022/10/28 01:55:28;;;;;;;18.87;12.88;;;;;;;12.19;89.95;100221.20;4309073;82;28490;-90
2022/10/28 02:01:31;;;;;;;17.25;12.20;;;;;;;12.75;85.88;100217.52;4303311;82;28460;-87
2022/10/28 02:07:33;;;;;;;19.57;13.20;;;;;;;11.79;88.02;100219.42;4287536;82;28620;-91
2022/10/28 02:14:06;;;;;;;20.10;12.63;;;;;;;11.97;90.11;100213.87;4207940;83;28465;-92
2022/10/28 02:20:56;;;;;;;17.25;11.08;;;;;;;12.18;85.93;100197.98;4297227;81;28535;-91
2022/10/28 02:27:17;;;;;;;18.87;12.07;;;;;;;11.72;86.86;100191.66;4327334;81;28485;-91
2022/10/28 02:33:23;;;;;;;19.17;11.57;;;;;;;12.10;87.34;100181.53;4311069;81;28461;-91
2022/10/28 02:39:32;;;;;;;21.57;12.25;;;;;;;12.35;85.28;100170.55;4308948;83;28447;-91
2022/10/28 02:45:40;;;;;;;21.40;13.28;;;;;;;12.09;85.30;100165.56;4308425;82;28465;-90
2022/10/28 02:51:58;;;;;;;20.85;13.48;;;;;;;11.80;89.62;100160.45;4284419;82;28472;-91
2022/10/28 02:57:59;;;;;;;25.72;14.30;;;;;;;11.47;94.80;100170.78;4296037;82;28463;-89
2022/10/28 03:04:02;;;;;;;16.70;11.68;;;;;;;11.52;93.25;100166.11;4277664;82;28459;-90
2022/10/28 03:10:04;;;;;;;23.85;12.63;;;;;;;11.77;88.62;100172.16;4266618;82;28576;-90
2022/10/28 03:16:05;;;;;;;21.42;13.58;;;;;;;11.33;92.80;100170.46;4284222;82;28433;-92
2022/10/28 03:22:07;;;;;;;17.32;11.45;;;;;;;11.98;91.46;100163.00;4285075;82;28476;-90
2022/10/28 03:28:08;;;;;;;20.90;12.73;;;;;;;11.54;88.77;100152.72;4308620;82;28441;-92
2022/10/28 03:34:10;;;;;;;29.52;15.68;;;;;;;11.89;91.37;100160.23;4312840;82;28499;-91
2022/10/28 03:40:12;;;;;;;29.42;15.50;;;;;;;12.55;89.56;100169.08;4306687;82;28433;-90
2022/10/28 03:46:13;;;;;;;22.05;14.53;;;;;;;12.53;89.46;100172.52;4325541;81;28501;-90
2022/10/28 03:52:15;;;;;;;21.45;14.10;;;;;;;12.30;88.51;100173.05;4325874;81;28501;-90
2022/10/28 03:58:16;;;;;;;20.70;13.65;;;;;;;11.94;88.53;100152.31;4326357;81;28469;-89
2022/10/28 04:04:17;;;;;;;20.57;12.58;;;;;;;11.74;87.86;100159.94;4308741;82;28588;-92
2022/10/28 04:10:19;;;;;;;19.23;13.38;;;;;;;11.81;86.16;100154.02;4327148;81;28553;-93
2022/10/28 04:16:20;;;;;;;19.15;12.50;;;;;;;11.69;86.74;100143.59;4308456;81;28467;-92
2022/10/28 04:22:21;;;;;;;22.22;12.88;;;;;;;11.25;86.96;100140.05;4311047;81;28441;-90
2022/10/28 04:28:23;;;;;;;22.52;13.62;;;;;;;11.56;88.65;100154.71;4327088;81;28468;-90
2022/10/28 04:34:25;;;;;;;20.27;13.38;;;;;;;11.57;89.02;100149.63;4342625;81;28517;-91
2022/10/28 04:40:29;;;;;;;21.42;13.10;;;;;;;11.50;88.37;100138.03;4347185;81;28449;-92
2022/10/28 04:46:30;;;;;;;19.07;12.93;;;;;;;11.58;87.21;100126.20;4320876;81;28564;-91
2022/10/28 04:52:31;;;;;;;18.90;11.90;;;;;;;11.55;85.16;100108.59;4369905;81;28517;-92
2022/10/28 04:58:32;;;;;;;22.62;13.43;;;;;;;11.19;84.45;100113.11;4306476;81;28480;-93
2022/10/28 05:04:34;;;;;;;18.85;13.03;;;;;;;11.04;90.60;100124.93;4290611;82;28489;-91
2022/10/28 05:10:35;;;;;;;20.35;12.73;;;;;;;11.52;89.49;100115.75;4285659;82;28473;-86
2022/10/28 05:16:38;;;;;;;19.23;13.08;;;;;;;11.23;87.38;100115.71;4294793;81;28547;-85
2022/10/28 05:29:08;;;;;;;20.23;12.68;;;;;;;11.08;88.12;100113.23;4297975;82;28461;-85
2022/10/28 05:35:10;;;;;;;25.88;13.08;;;;;;;11.32;87.72;100119.84;4318371;81;28867;-85
2022/10/28 05:41:12;;;;;;;25.85;13.75;;;;;;;11.25;86.56;100120.36;4305686;81;28469;-85
2022/10/28 05:47:15;;;;;;;21.93;13.15;;;;;;;11.53;84.84;100112.02;4319022;82;28508;-82
2022/10/28 05:53:25;;;;;;;21.15;12.35;;;;;;;11.48;84.24;100120.42;4279307;81;28573;-83
2022/10/28 05:59:36;;;;;;;22.80;13.58;;;;;;;11.65;82.98;100108.67;4314460;80;28544;-84
2022/10/28 06:05:43;;;;;;;21.33;13.40;;;;;;;11.56;82.86;100129.13;4310654;81;28529;-82
2022/10/28 06:11:55;;;;;;;20.85;12.30;;;;;;;11.36;87.73;100121.60;4304265;81;28538;-82
2022/10/28 06:18:19;;;;;;;17.60;11.68;;;;;;;11.59;86.66;100111.69;4263954;82;28452;-84
2022/10/28 06:24:28;;;;;;;21.42;12.55;;;;;;;11.69;87.61;100113.42;4225558;81;28545;-85
2022/10/28 06:30:29;;;;;;;20.20;12.85;;;;;;;12.07;88.11;100107.81;4266000;81;28560;-82
2022/10/28 06:37:05;;;;;;;20.65;12.63;;;;;;;11.98;88.63;100105.86;4178488;83;28474;-83
2022/10/28 06:56:31;;;;;;;26.33;13.83;;;;;;;12.35;93.55;100119.31;4104855;84;28516;-84
2022/10/28 07:17:19;;;;;;;23.38;12.45;;;;;;;13.28;91.82;100118.81;3866599;90;28454;-84
2022/10/28 07:23:52;;;;;;;19.25;12.55;;;;;;;13.85;91.44;100126.76;3872207;90;28496;-85
2022/10/28 07:36:55;;;;;;;27.55;14.25;;;;;;;14.14;92.13;100123.48;3830537;90;28492;-83
2022/10/28 07:42:58;;;;;;;23.57;13.43;;;;;;;14.20;91.04;100132.05;3951689;81;28509;-85
2022/10/28 07:49:02;;;;;;;20.45;12.55;;;;;;;14.26;91.86;100133.02;4282629;81;28506;-83
2022/10/28 07:55:05;;;;;;;20.35;12.90;;;;;;;14.78;93.50;100133.85;4247516;81;28515;-85
2022/10/28 08:01:09;;;;;;;22.48;13.45;;;;;;;14.50;95.00;100129.88;4251306;81;28508;-85
2022/10/28 08:07:11;;;;;;;23.75;12.82;;;;;;;15.02;92.42;100128.50;4281271;81;28506;-84
2022/10/28 08:13:13;;;;;;;23.18;13.05;;;;;;;15.00;95.24;100117.08;4269981;81;28532;-85
2022/10/28 08:19:17;;;;;;;22.93;13.20;;;;;;;15.49;94.11;100112.77;4266897;81;28475;-84
2022/10/28 08:25:18;;;;;;;20.35;11.97;;;;;;;15.85;91.73;100110.80;4259955;81;28505;-85
2022/10/28 08:31:20;;;;;;;21.42;12.28;;;;;;;16.02;92.33;100113.61;4278951;81;28450;-84
2022/10/28 08:37:21;;;;;;;20.32;11.85;;;;;;;15.79;95.31;100109.59;4277016;81;28556;-83
2022/10/28 08:43:46;;;;;;;22.80;10.93;;;;;;;16.30;93.99;100106.55;4257721;81;28485;-86
2022/10/28 08:49:52;;;;;;;17.45;11.05;;;;;;;16.66;91.21;100101.45;4263688;81;28478;-85
2022/10/28 08:55:58;;;;;;;16.67;10.70;;;;;;;16.92;90.79;100103.25;4254788;81;28480;-86
2022/10/28 09:02:21;;;;;;;16.35;8.98;;;;;;;17.06;89.73;100091.00;4163047;85;28495;-87
2022/10/28 09:08:27;;;;;;;13.93;7.45;;;;;;;17.43;89.97;100084.18;4295000;82;28464;-93
2022/10/28 09:14:48;;;;;;;12.20;7.17;;;;;;;17.76;88.90;100084.33;4188728;85;28461;-91
2022/10/28 09:20:54;;;;;;;13.60;7.47;;;;;;;18.01;87.32;100086.53;4270465;82;28530;-88
2022/10/28 09:27:31;;;;;;;13.60;6.67;;;;;;;17.62;89.82;100087.44;4262099;82;28455;-87
2022/10/28 09:34:05;;;;;;;12.40;6.92;;;;;;;18.55;86.20;100082.75;4127453;84;28452;-89
2022/10/28 09:40:19;;;;;;;12.93;7.28;;;;;;;18.89;84.15;100081.11;4128906;85;28484;-90
2022/10/28 09:46:23;;;;;;;13.50;6.90;;;;;;;19.19;82.61;100077.78;4285618;82;28488;-90
2022/10/28 09:52:34;;;;;;;15.38;8.13;;;;;;;19.02;82.26;100079.88;4265185;82;28499;-87
2022/10/28 09:58:37;;;;;;;11.73;7.40;;;;;;;19.41;81.61;100072.72;4107340;85;28495;-89
2022/10/28 10:04:41;;;;;;;12.55;7.00;;;;;;;19.62;81.53;100061.37;4246076;82;28479;-89
2022/10/28 10:10:59;;;;;;;13.20;8.03;;;;;;;19.74;81.12;100059.80;4150923;84;28538;-86
2022/10/28 10:17:08;;;;;;;16.35;7.17;;;;;;;19.91;80.89;100051.92;4244027;82;28466;-86
2022/10/28 10:23:32;;;;;;;13.40;7.55;;;;;;;20.20;79.75;100058.30;4168874;82;28453;-87
2022/10/28 10:29:38;;;;;;;15.10;8.45;;;;;;;20.25;79.26;100053.39;4258870;82;28472;-87
2022/10/28 10:35:40;;;;;;;13.90;8.33;;;;;;;20.53;78.70;100058.87;4256836;82;28526;-86
2022/10/28 10:41:44;;;;;;;16.90;7.70;;;;;;;20.62;77.95;100050.97;4143415;83;28473;-86
2022/10/28 10:47:45;;;;;;;16.02;7.35;;;;;;;20.93;77.25;100048.23;4134161;84;28462;-94
2022/10/28 10:53:55;;;;;;;16.62;7.75;;;;;;;21.14;75.89;100039.99;4160211;83;28488;-93
2022/10/28 10:59:58;;;;;;;13.30;7.28;;;;;;;21.42;75.00;100034.42;4204352;83;28450;-93
2022/10/28 11:06:03;;;;;;;11.35;7.58;;;;;;;21.65;74.35;100022.55;4207335;83;28489;-90
2022/10/28 11:12:33;;;;;;;12.53;6.78;;;;;;;22.00;72.97;100023.47;4185651;83;28483;-88
2022/10/28 11:18:42;;;;;;;11.85;7.03;;;;;;;22.07;72.65;100024.52;4163600;83;28621;-88
2022/10/28 11:25:07;;;;;;;10.93;7.15;;;;;;;22.23;70.12;100027.16;4270909;82;28462;-86
2022/10/28 11:31:38;;;;;;;11.57;7.27;;;;;;;22.52;69.97;100020.95;4260775;81;28494;-89
2022/10/28 11:37:54;;;;;;;13.88;7.15;;;;;;;22.20;70.46;100022.27;4257515;81;28551;-88
2022/10/28 11:44:28;;;;;;;12.07;6.90;;;;;;;22.88;68.99;100011.00;4276891;81;28487;-88
2022/10/28 11:50:49;;;;;;;10.50;6.03;;;;;;;22.87;68.21;100005.83;4031526;86;28498;-90
2022/10/28 11:57:02;;;;;;;9.73;5.53;;;;;;;23.11;67.41;100006.64;4262052;82;28455;-88
2022/10/28 12:03:26;;;;;;;11.97;5.35;;;;;;;23.31;66.45;100004.80;4274945;81;28464;-89
2022/10/28 12:10:06;;;;;;;8.38;4.85;;;;;;;23.44;65.40;99998.34;4256157;81;28496;-86
2022/10/28 12:16:40;;;;;;;8.58;4.92;;;;;;;23.57;64.28;99986.63;4250004;81;28509;-86
2022/10/28 12:22:49;;;;;;;9.08;5.40;;;;;;;24.21;62.94;99984.91;4275048;81;28467;-86
2022/10/28 12:28:54;;;;;;;9.23;4.97;;;;;;;24.56;63.30;99978.27;4253339;81;28482;-86
2022/10/28 12:35:16;;;;;;;10.50;5.50;;;;;;;24.50;61.71;99970.67;4280905;81;28490;-87
2022/10/28 12:41:47;;;;;;;11.80;5.72;;;;;;;24.35;62.20;99975.30;4260672;82;28568;-85
2022/10/28 12:48:09;;;;;;;9.75;5.28;;;;;;;24.64;61.75;99963.26;4271076;81;28470;-85
2022/10/28 12:54:43;;;;;;;9.45;5.37;;;;;;;24.91;60.57;99959.49;4288913;81;28468;-87
2022/10/28 13:00:49;;;;;;;7.95;5.37;;;;;;;25.21;60.36;99953.12;4243117;82;28547;-87
2022/10/28 13:07:30;;;;;;;9.90;6.75;;;;;;;25.24;60.83;99941.48;4267805;81;28493;-87
2022/10/28 13:13:52;;;;;;;12.07;6.65;;;;;;;24.63;61.78;99945.72;4204925;83;28478;-87
2022/10/28 13:20:05;;;;;;;12.10;7.03;;;;;;;24.84;60.67;99948.91;4285052;81;28514;-86
2022/10/28 13:26:29;;;;;;;13.03;7.28;;;;;;;24.80;60.50;99941.02;4304947;81;28502;-87
2022/10/28 13:32:37;;;;;;;12.80;7.15;;;;;;;25.34;60.99;99942.64;4256334;81;28451;-86
2022/10/28 13:38:41;;;;;;;13.18;7.20;;;;;;;25.93;58.86;99940.27;4292071;81;28489;-88
2022/10/28 13:45:03;;;;;;;11.65;6.35;;;;;;;25.55;59.10;99933.95;4291401;81;28449;-87
2022/10/28 13:51:14;;;;;;;10.98;6.67;;;;;;;25.48;58.82;99937.69;4276606;81;28489;-89
2022/10/28 13:57:34;;;;;;;9.03;6.33;;;;;;;25.50;59.50;99940.14;4295118;81;28510;-88
2022/10/28 14:03:35;;;;;;;13.80;7.05;;;;;;;25.32;59.92;99934.46;4305498;81;28466;-91
2022/10/28 14:09:41;;;;;;;11.65;6.97;;;;;;;25.25;59.79;99937.61;4306155;81;28455;-91
2022/10/28 14:15:48;;;;;;;11.40;6.15;;;;;;;25.09;59.72;99927.48;4305692;81;28573;-91
2022/10/28 14:22:06;;;;;;;13.15;7.10;;;;;;;24.99;60.22;99929.08;4338529;80;28534;-92
2022/10/28 14:28:32;;;;;;;15.38;8.03;;;;;;;24.90;60.81;99930.36;4298299;81;28512;-87
2022/10/28 14:34:38;;;;;;;13.50;7.80;;;;;;;24.68;61.75;99929.66;4295314;81;28558;-89
2022/10/28 14:40:52;;;;;;;14.77;7.47;;;;;;;24.56;62.39;99924.09;4305351;82;28465;-90
2022/10/28 14:47:24;;;;;;;11.43;7.05;;;;;;;24.40;63.02;99924.14;4292073;81;28483;-90
2022/10/28 14:53:33;;;;;;;10.95;6.65;;;;;;;24.27;63.57;99921.61;4292595;81;28473;-90
2022/10/28 14:59:41;;;;;;;12.55;6.75;;;;;;;24.04;64.27;99919.50;4289414;81;28459;-86
2022/10/28 15:05:42;;;;;;;11.30;6.62;;;;;;;23.93;64.79;99921.59;4263632;81;28497;-86
2022/10/28 15:11:51;;;;;;;12.25;7.05;;;;;;;23.70;65.64;99923.31;4228220;83;28533;-85
2022/10/28 15:17:53;;;;;;;10.23;6.17;;;;;;;23.33;66.99;99913.98;4279045;81;28449;-84
2022/10/28 15:24:00;;;;;;;11.38;6.47;;;;;;;23.09;67.51;99922.48;4242855;81;28510;-85
2022/10/28 15:30:08;;;;;;;13.30;6.47;;;;;;;22.91;68.24;99911.74;4260055;82;28514;-84
2022/10/28 15:36:16;;;;;;;14.18;6.42;;;;;;;22.65;68.81;99918.04;4271179;81;28456;-83
2022/10/28 15:42:32;;;;;;;12.20;6.30;;;;;;;22.46;69.79;99915.20;4284749;81;28460;-84
2022/10/28 15:48:37;;;;;;;13.73;6.73;;;;;;;22.15;71.53;99915.75;4281571;81;28484;-82
2022/10/28 15:54:39;;;;;;;13.60;6.53;;;;;;;21.89;72.94;99899.29;4141524;84;28480;-80
2022/10/28 16:00:52;;;;;;;15.68;6.90;;;;;;;21.60;74.76;99911.75;4204327;83;28494;-80
2022/10/28 16:06:56;;;;;;;15.00;7.62;;;;;;;21.58;76.25;99905.75;4200568;83;28493;-86
2022/10/28 16:12:58;;;;;;;16.15;7.80;;;;;;;21.56;77.71;99911.53;4217683;83;28489;-82
2022/10/28 16:19:10;;;;;;;11.03;7.25;;;;;;;21.48;77.31;99914.03;4178417;83;28497;-82
2022/10/28 16:25:15;;;;;;;12.88;7.22;;;;;;;21.17;79.17;99915.02;4083817;85;28593;-79
2022/10/28 16:31:19;;;;;;;14.15;7.00;;;;;;;21.28;76.84;99917.14;4204844;83;28533;-79
2022/10/28 16:37:32;;;;;;;18.35;9.40;;;;;;;21.08;79.15;99923.53;4211982;83;28504;-80
2022/10/28 16:43:34;;;;;;;17.70;9.53;;;;;;;20.80;81.67;99921.14;4209819;83;28527;-79
2022/10/28 16:49:36;;;;;;;15.70;9.15;;;;;;;20.76;82.35;99927.71;4175257;83;28551;-78
2022/10/28 16:55:37;;;;;;;15.20;8.78;;;;;;;20.69;83.04;99926.38;4234968;81;28511;-79
2022/10/28 17:01:39;;;;;;;14.45;8.83;;;;;;;20.60;82.86;99937.86;4199910;84;28551;-78
2022/10/28 17:07:40;;;;;;;18.10;9.03;;;;;;;20.46;83.37;99938.14;4218928;82;28485;-78
2022/10/28 17:13:42;;;;;;;18.98;9.38;;;;;;;20.25;84.06;99932.69;4214969;82;28535;-78
2022/10/28 17:19:45;;;;;;;15.83;9.30;;;;;;;20.15;84.18;99934.89;4275823;82;28499;-78
2022/10/28 17:25:58;;;;;;;14.58;9.00;;;;;;;20.03;85.18;99928.89;4285979;82;28473;-77
2022/10/28 17:32:01;;;;;;;18.45;10.85;;;;;;;19.89;85.96;99928.05;4287872;82;28522;-77
2022/10/28 17:38:02;;;;;;;17.15;9.65;;;;;;;19.82;87.09;99938.93;4288607;81;28545;-77
2022/10/28 17:44:04;;;;;;;17.73;9.23;;;;;;;19.56;88.82;99936.17;4285612;81;28577;-77
2022/10/28 17:50:06;;;;;;;19.67;11.35;;;;;;;19.37;88.44;99932.56;4279498;82;28524;-78
2022/10/28 17:56:08;;;;;;;21.20;12.63;;;;;;;19.42;89.24;99932.59;4274497;82;28527;-78
2022/10/28 18:02:13;;;;;;;26.23;13.90;;;;;;;19.12;90.02;99939.58;4294917;81;28510;-80
2022/10/28 18:08:15;;;;;;;23.35;14.30;;;;;;;19.33;90.81;99928.19;4200191;83;28497;-78
2022/10/28 18:14:19;;;;;;;30.15;16.95;;;;;;;19.27;91.11;99925.72;4282762;82;28505;-80
2022/10/28 18:20:21;;;;;;;30.92;16.32;;;;;;;19.22;92.44;99913.72;4204614;83;28485;-82
2022/10/28 18:26:22;;;;;;;34.18;18.15;;;;;;;18.94;94.57;99911.66;4210573;83;28485;-80
2022/10/28 18:32:23;;;;;;;32.58;17.60;;;;;;;19.05;93.06;99904.37;4173588;83;28554;-79
2022/10/28 18:38:26;;;;;;;37.85;19.85;;;;;;;19.00;93.98;99901.64;4143453;84;28490;-79
2022/10/28 18:44:30;;;;;;;33.38;19.95;;;;;;;18.80;95.83;99905.88;4284268;82;28451;-76
2022/10/28 18:50:31;;;;;;;35.48;20.45;;;;;;;18.97;95.32;99901.31;4216877;83;28606;-81
2022/10/28 18:56:32;;;;;;;35.33;19.82;;;;;;;19.07;95.31;99900.86;4218211;82;28489;-78
2022/10/28 19:02:36;;;;;;;36.00;19.95;;;;;;;18.55;98.34;99898.94;4228478;82;28522;-77
2022/10/28 19:08:38;;;;;;;34.53;19.77;;;;;;;18.54;98.36;99894.02;4215977;82;28481;-79
2022/10/28 19:14:39;;;;;;;37.40;20.30;;;;;;;18.62;97.04;99892.17;4227447;82;28456;-80
2022/10/28 19:20:41;;;;;;;37.93;21.55;;;;;;;18.59;97.91;99882.34;4216013;82;28469;-77
2022/10/28 19:26:42;;;;;;;37.00;21.33;;;;;;;18.73;96.61;99890.86;4226662;82;28521;-81
2022/10/28 19:32:58;;;;;;;36.38;21.42;;;;;;;18.70;96.46;99893.56;4225599;82;28487;-81
2022/10/28 19:38:59;;;;;;;35.48;21.85;;;;;;;18.76;95.98;99908.86;4226542;82;28442;-82
2022/10/28 19:45:12;;;;;;;38.10;22.48;;;;;;;18.70;95.66;99904.46;4227426;82;28544;-82
2022/10/28 19:51:34;;;;;;;34.63;21.97;;;;;;;18.42;97.78;99904.30;4225630;82;28517;-81
2022/10/28 19:57:39;;;;;;;36.57;23.40;;;;;;;18.43;97.38;99914.94;4186435;82;28536;-79
2022/10/28 20:03:40;;;;;;;36.48;22.35;;;;;;;18.42;96.78;99916.55;4198861;83;28549;-77
2022/10/28 20:09:43;;;;;;;42.93;25.60;;;;;;;18.36;96.63;99912.97;4184298;83;28529;-77
2022/10/28 20:15:48;;;;;;;43.08;23.65;;;;;;;18.47;95.47;99920.65;4191401;83;28501;-78
2022/10/28 20:21:50;;;;;;;38.20;24.18;;;;;;;18.29;95.72;99929.53;4292372;81;28479;-79
2022/10/28 20:27:55;;;;;;;44.10;25.00;;;;;;;18.32;95.06;99929.53;4173761;83;28484;-78
2022/10/28 20:33:59;;;;;;;41.15;24.95;;;;;;;18.03;95.50;99930.67;4273073;81;28528;-77
2022/10/28 20:40:02;;;;;;;43.97;25.70;;;;;;;17.91;96.16;99926.75;4311022;81;28482;-78
2022/10/28 20:46:06;;;;;;;41.85;24.27;;;;;;;17.80;97.60;99926.34;4267894;81;28533;-77
2022/10/28 20:52:07;;;;;;;38.65;22.87;;;;;;;17.68;97.01;99934.68;4257835;81;28501;-77
2022/10/28 20:58:12;;;;;;;41.20;23.75;;;;;;;17.59;96.97;99936.22;4294045;81;28505;-77
2022/10/28 21:04:13;;;;;;;37.50;22.65;;;;;;;17.63;96.78;99937.33;4293090;81;28623;-77
2022/10/28 21:10:19;;;;;;;38.55;21.77;;;;;;;17.45;97.68;99945.30;4282198;81;28570;-77
2022/10/28 21:16:26;;;;;;;39.23;22.25;;;;;;;17.47;97.52;99940.42;4268850;81;28550;-77
2022/10/28 21:22:29;;;;;;;38.73;23.60;;;;;;;17.24;98.31;99931.48;4256632;82;28489;-77
2022/10/28 21:28:35;;;;;;;41.00;22.67;;;;;;;17.59;96.21;99920.70;4271127;82;28502;-77
2022/10/28 21:34:39;;;;;;;34.77;21.93;;;;;;;17.35;97.40;99930.52;4279915;80;28536;-77
2022/10/28 21:40:40;;;;;;;38.08;22.42;;;;;;;17.06;98.09;99918.48;4278291;81;28561;-76
2022/10/28 21:46:42;;;;;;;36.10;21.75;;;;;;;16.98;97.44;99912.94;4275722;81;28493;-77
2022/10/28 21:52:43;;;;;;;36.48;21.85;;;;;;;16.73;98.68;99907.46;4255052;81;28556;-78
2022/10/28 21:58:50;;;;;;;35.28;21.50;;;;;;;16.88;98.17;99907.92;4291012;81;28498;-76
2022/10/28 22:04:51;;;;;;;34.85;21.00;;;;;;;16.68;99.92;99912.00;4314087;81;28645;-76
2022/10/28 22:11:07;;;;;;;36.33;22.20;;;;;;;16.76;98.77;99903.41;4316640;81;28499;-81
2022/10/28 22:17:08;;;;;;;35.52;22.27;;;;;;;16.90;98.05;99898.98;4284397;81;28494;-80
2022/10/28 22:23:10;;;;;;;38.08;21.75;;;;;;;16.80;97.66;99885.55;4299740;82;28507;-80
2022/10/28 22:29:11;;;;;;;33.25;21.42;;;;;;;16.83;96.90;99885.59;4298828;81;28447;-81
2022/10/28 22:35:13;;;;;;;38.95;23.20;;;;;;;16.41;99.36;99886.39;4298464;81;28498;-80
2022/10/28 22:41:25;;;;;;;36.83;22.80;;;;;;;16.62;97.49;99881.25;4299230;81;28512;-81
2022/10/28 22:47:26;;;;;;;35.03;22.35;;;;;;;16.57;98.62;99879.80;4281665;81;28477;-81
2022/10/28 22:53:28;;;;;;;33.95;21.85;;;;;;;16.52;98.56;99877.03;4282386;81;28544;-80
2022/10/28 22:59:31;;;;;;;36.25;22.75;;;;;;;16.34;98.72;99876.23;4293850;82;28483;-80
2022/10/28 23:05:34;;;;;;;40.10;21.95;;;;;;;16.33;98.63;99875.12;4266856;81;28621;-81
2022/10/28 23:11:36;;;;;;;33.88;21.15;;;;;;;16.27;98.47;99875.06;4275453;81;28443;-81
2022/10/28 23:17:37;;;;;;;36.15;21.77;;;;;;;16.37;98.11;99870.85;4297241;81;28536;-79
2022/10/28 23:23:40;;;;;;;34.45;21.07;;;;;;;16.30;98.82;99879.98;4297529;81;28474;-79
2022/10/28 23:29:42;;;;;;;31.02;20.48;;;;;;;16.31;98.28;99872.12;4226386;82;28493;-78
2022/10/28 23:35:46;;;;;;;33.55;21.07;;;;;;;16.41;97.82;99863.84;4312841;81;28534;-78
2022/10/28 23:41:48;;;;;;;34.95;20.60;;;;;;;16.34;98.16;99862.67;4294676;81;28510;-79
2022/10/28 23:47:49;;;;;;;38.45;21.60;;;;;;;16.29;98.34;99852.56;4295804;81;28516;-79
2022/10/28 23:53:50;;;;;;;36.28;22.42;;;;;;;16.24;98.28;99851.11;4295922;82;28561;-79
2022/10/28 23:59:52;;;;;;;39.40;23.30;;;;;;;16.38;97.90;99844.80;4296417;81;28526;-80
